Terminal Aerodrome Forecast
Issued by NWS Sioux Falls, SD

Home | Current Version | Previous Version | Graphics & Text | Print | Product List | Glossary Off
Versions: 1 2 3 4 5 6 7 8 9 10 11 12 13 14 15 16 17 18 19 20 21 22 23 24 25 26 27 28 29 30 31 32 33 34 35 36 37 38

000
FTUS43 KFSD 051621 AAA
TAFSUX
TAF AMD
KSUX 051621Z 0516/0612 10007KT 5SM BR OVC005
     FM051700 12012KT P6SM OVC012
     FM051900 14010KT P6SM OVC040
      TEMPO 0519/0522 4SM SHRA BR OVC025
     FM060900 15013KT 4SM SHRA BR OVC012=

USA.gov is the U.S. government's official web portal to all federal, state and local government web resources and services.